TimeAKST,TemperatureF,Dew PointF,Humidity,Sea Level PressureIn,VisibilityMPH,Wind Direction,Wind SpeedMPH,Gust SpeedMPH,PrecipitationIn,Events,Conditions,WindDirDegrees,DateUTC
12:04 AM,41.0,33.8,76,29.35,7.0,South,10.4,20.7,0.00,Rain,Light Rain,180,2013-01-01 09:04:00
12:53 AM,41.0,32.0,70,29.33,7.0,SSE,15.0,25.3,0.04,Rain,Rain,160,2013-01-01 09:53:00
1:53 AM,41.0,28.9,62,29.32,10.0,SSE,10.4,25.3,0.04,Rain,Light Rain,160,2013-01-01 10:53:00
3:53 AM,42.1,26.1,53,29.31,10.0,Variable,5.8,26.5,N/A,,Overcast,0,2013-01-01 12:53:00
4:53 AM,41.0,26.1,55,29.26,10.0,South,11.5,33.4,N/A,,Mostly Cloudy,180,2013-01-01 13:53:00
5:53 AM,42.1,26.1,53,29.26,10.0,Variable,5.8,24.2,0.00,,Overcast,0,2013-01-01 14:53:00
6:53 AM,42.1,27.0,55,29.24,10.0,SSE,11.5,21.9,N/A,,Overcast,150,2013-01-01 15:53:00
7:53 AM,41.0,27.0,57,29.21,10.0,Variable,4.6,23.0,0.00,Rain,Light Rain,0,2013-01-01 16:53:00
8:53 AM,41.0,27.0,57,29.23,10.0,South,10.4,20.7,0.00,,Overcast,170,2013-01-01 17:53:00
9:53 AM,41.0,27.0,57,29.21,10.0,South,21.9,35.7,0.00,Rain,Light Rain,170,2013-01-01 18:53:00
10:41 AM,37.4,32.0,81,29.21,3.0,Variable,5.8,25.3,0.02,Rain,Light Rain,0,2013-01-01 19:41:00
10:53 AM,37.9,30.9,76,29.21,4.0,Variable,4.6,-,0.02,Rain,Light Rain,0,2013-01-01 19:53:00
11:05 AM,39.2,28.4,65,29.21,9.0,South,12.7,33.4,0.00,Rain,Light Rain,180,2013-01-01 20:05:00
11:53 AM,37.9,30.0,73,29.21,9.0,Variable,3.5,-,0.01,Rain,Light Rain,0,2013-01-01 20:53:00
12:23 PM,37.4,30.2,75,29.21,3.0,Variable,3.5,-,0.02,Rain,Rain,0,2013-01-01 21:23:00
12:53 PM,35.1,33.1,92,29.20,7.0,North,5.8,-,0.03,Rain,Light Rain,360,2013-01-01 21:53:00
1:53 PM,35.1,33.1,92,29.19,10.0,Calm,Calm,-,0.02,Rain,Light Rain,0,2013-01-01 22:53:00
2:53 PM,36.0,33.1,89,29.16,5.0,South,4.6,-,0.04,Rain,Light Rain,180,2013-01-01 23:53:00
3:53 PM,36.0,33.1,89,29.13,8.0,Variable,5.8,-,0.04,Rain,Light Rain,0,2013-01-02 00:53:00
4:53 PM,35.1,34.0,96,29.13,10.0,Calm,Calm,-,0.01,Rain,Light Rain,0,2013-01-02 01:53:00
5:53 PM,34.0,32.0,92,29.13,8.0,NNE,3.5,-,0.05,Snow,Light Snow,30,2013-01-02 02:53:00
6:17 PM,33.8,33.8,100,29.13,6.0,Calm,Calm,-,0.01,Rain,Light Rain,0,2013-01-02 03:17:00
6:53 PM,35.1,33.1,92,29.12,10.0,NNE,3.5,-,0.03,Rain,Light Rain,20,2013-01-02 03:53:00
7:33 PM,35.6,33.8,93,29.14,7.0,Calm,Calm,-,0.02,Rain,Light Rain,0,2013-01-02 04:33:00
7:53 PM,35.1,33.1,92,29.14,10.0,North,5.8,-,0.04,Rain,Light Rain,10,2013-01-02 04:53:00
8:53 PM,36.0,34.0,93,29.15,9.0,Calm,Calm,-,0.03,Rain,Light Rain,0,2013-01-02 05:53:00
9:53 PM,37.0,34.0,89,29.17,10.0,Variable,6.9,-,0.03,Rain,Light Rain,0,2013-01-02 06:53:00
10:53 PM,37.0,34.0,89,29.19,8.0,South,11.5,19.6,0.02,Rain,Light Rain,180,2013-01-02 07:53:00
11:53 PM,37.0,34.0,89,29.22,9.0,South,9.2,19.6,0.03,Rain,Light Rain,180,2013-01-02 08:53:00